sensor_id;sensor_type;location;lat;lon;timestamp;P1;durP1;ratioP1;P2;durP2;ratioP2
12840;SDS011;6487;48.626;12.486;2023-09-08T00:00:37;6.20;;;4.27;;
12840;SDS011;6487;48.626;12.486;2023-09-08T00:03:05;4.40;;;4.00;;
12840;SDS011;6487;48.626;12.486;2023-09-08T00:05:33;6.10;;;3.90;;
12840;SDS011;6487;48.626;12.486;2023-09-08T00:08:04;4.97;;;4.03;;
12840;SDS011;6487;48.626;12.486;2023-09-08T00:10:33;5.70;;;4.37;;
12840;SDS011;6487;48.626;12.486;2023-09-08T00:13:03;5.43;;;4.40;;
12840;SDS011;6487;48.626;12.486;2023-09-08T00:15:33;4.33;;;3.93;;
12840;SDS011;6487;48.626;12.486;2023-09-08T00:18:02;4.30;;;4.00;;
12840;SDS011;6487;48.626;12.486;2023-09-08T00:20:31;4.30;;;3.80;;
12840;SDS011;6487;48.626;12.486;2023-09-08T00:23:01;5.97;;;4.37;;
12840;SDS011;6487;48.626;12.486;2023-09-08T00:25:32;4.60;;;4.20;;
12840;SDS011;6487;48.626;12.486;2023-09-08T00:28:03;4.10;;;3.70;;
12840;SDS011;6487;48.626;12.486;2023-09-08T00:30:35;4.33;;;3.90;;
12840;SDS011;6487;48.626;12.486;2023-09-08T00:33:07;4.73;;;4.33;;
12840;SDS011;6487;48.626;12.486;2023-09-08T00:35:35;5.17;;;4.67;;
12840;SDS011;6487;48.626;12.486;2023-09-08T00:38:05;5.27;;;4.77;;
12840;SDS011;6487;48.626;12.486;2023-09-08T00:40:33;5.77;;;4.40;;
12840;SDS011;6487;48.626;12.486;2023-09-08T00:43:03;4.80;;;4.33;;
12840;SDS011;6487;48.626;12.486;2023-09-08T00:45:32;5.27;;;4.10;;
12840;SDS011;6487;48.626;12.486;2023-09-08T00:48:04;4.87;;;4.33;;
12840;SDS011;6487;48.626;12.486;2023-09-08T00:50:33;4.63;;;4.20;;
12840;SDS011;6487;48.626;12.486;2023-09-08T00:53:04;4.47;;;3.83;;
12840;SDS011;6487;48.626;12.486;2023-09-08T00:55:34;5.47;;;3.87;;
12840;SDS011;6487;48.626;12.486;2023-09-08T00:58:05;6.50;;;4.20;;
12840;SDS011;6487;48.626;12.486;2023-09-08T01:00:33;5.07;;;4.10;;
12840;SDS011;6487;48.626;12.486;2023-09-08T01:03:02;4.63;;;3.70;;
12840;SDS011;6487;48.626;12.486;2023-09-08T01:05:31;5.50;;;4.07;;
12840;SDS011;6487;48.626;12.486;2023-09-08T01:08:00;5.20;;;3.90;;
12840;SDS011;6487;48.626;12.486;2023-09-08T01:10:30;4.17;;;3.77;;
12840;SDS011;6487;48.626;12.486;2023-09-08T01:12:59;4.73;;;4.20;;
12840;SDS011;6487;48.626;12.486;2023-09-08T01:15:28;4.30;;;3.90;;
12840;SDS011;6487;48.626;12.486;2023-09-08T01:17:57;5.33;;;4.37;;
12840;SDS011;6487;48.626;12.486;2023-09-08T01:20:27;4.53;;;4.13;;
12840;SDS011;6487;48.626;12.486;2023-09-08T01:23:01;6.27;;;4.07;;
12840;SDS011;6487;48.626;12.486;2023-09-08T01:25:44;4.63;;;4.23;;
12840;SDS011;6487;48.626;12.486;2023-09-08T01:28:18;5.13;;;4.30;;
12840;SDS011;6487;48.626;12.486;2023-09-08T01:30:51;6.67;;;3.97;;
12840;SDS011;6487;48.626;12.486;2023-09-08T01:33:22;4.57;;;4.17;;
12840;SDS011;6487;48.626;12.486;2023-09-08T01:35:51;4.63;;;4.03;;
12840;SDS011;6487;48.626;12.486;2023-09-08T01:38:20;5.10;;;4.20;;
12840;SDS011;6487;48.626;12.486;2023-09-08T01:40:53;4.27;;;3.87;;
12840;SDS011;6487;48.626;12.486;2023-09-08T01:43:21;5.07;;;4.20;;
12840;SDS011;6487;48.626;12.486;2023-09-08T01:45:50;4.30;;;3.90;;
12840;SDS011;6487;48.626;12.486;2023-09-08T01:48:18;4.93;;;4.47;;
12840;SDS011;6487;48.626;12.486;2023-09-08T01:50:47;5.50;;;4.57;;
12840;SDS011;6487;48.626;12.486;2023-09-08T01:53:15;5.33;;;4.23;;
12840;SDS011;6487;48.626;12.486;2023-09-08T01:55:44;4.90;;;4.40;;
12840;SDS011;6487;48.626;12.486;2023-09-08T01:58:16;5.33;;;4.83;;
12840;SDS011;6487;48.626;12.486;2023-09-08T02:00:47;5.20;;;4.70;;
12840;SDS011;6487;48.626;12.486;2023-09-08T02:03:17;6.20;;;4.37;;
12840;SDS011;6487;48.626;12.486;2023-09-08T02:05:46;6.50;;;4.30;;
12840;SDS011;6487;48.626;12.486;2023-09-08T02:08:14;4.70;;;4.30;;
12840;SDS011;6487;48.626;12.486;2023-09-08T02:10:42;4.70;;;4.20;;
12840;SDS011;6487;48.626;12.486;2023-09-08T02:13:11;6.40;;;5.80;;
12840;SDS011;6487;48.626;12.486;2023-09-08T02:15:41;5.30;;;4.80;;
12840;SDS011;6487;48.626;12.486;2023-09-08T02:18:10;4.97;;;4.47;;
12840;SDS011;6487;48.626;12.486;2023-09-08T02:20:39;5.10;;;4.60;;
12840;SDS011;6487;48.626;12.486;2023-09-08T02:23:10;7.80;;;4.13;;
12840;SDS011;6487;48.626;12.486;2023-09-08T02:25:38;4.73;;;4.33;;
12840;SDS011;6487;48.626;12.486;2023-09-08T02:28:07;4.53;;;4.13;;
12840;SDS011;6487;48.626;12.486;2023-09-08T02:30:35;4.57;;;4.17;;
12840;SDS011;6487;48.626;12.486;2023-09-08T02:33:05;4.60;;;4.20;;
12840;SDS011;6487;48.626;12.486;2023-09-08T02:35:37;6.17;;;4.43;;
12840;SDS011;6487;48.626;12.486;2023-09-08T02:38:06;4.97;;;4.47;;
12840;SDS011;6487;48.626;12.486;2023-09-08T02:40:38;5.70;;;4.70;;
12840;SDS011;6487;48.626;12.486;2023-09-08T02:43:06;6.07;;;5.03;;
12840;SDS011;6487;48.626;12.486;2023-09-08T02:45:35;5.27;;;4.77;;
12840;SDS011;6487;48.626;12.486;2023-09-08T02:48:06;6.90;;;4.33;;
12840;SDS011;6487;48.626;12.486;2023-09-08T02:50:34;6.43;;;4.47;;
12840;SDS011;6487;48.626;12.486;2023-09-08T02:53:03;5.20;;;4.10;;
12840;SDS011;6487;48.626;12.486;2023-09-08T02:55:32;5.17;;;4.03;;
12840;SDS011;6487;48.626;12.486;2023-09-08T02:58:00;4.97;;;4.43;;
12840;SDS011;6487;48.626;12.486;2023-09-08T03:00:32;5.10;;;4.70;;
12840;SDS011;6487;48.626;12.486;2023-09-08T03:03:01;5.77;;;4.20;;
12840;SDS011;6487;48.626;12.486;2023-09-08T03:05:32;5.17;;;4.27;;
12840;SDS011;6487;48.626;12.486;2023-09-08T03:08:03;6.20;;;4.80;;
12840;SDS011;6487;48.626;12.486;2023-09-08T03:10:32;6.53;;;4.50;;
12840;SDS011;6487;48.626;12.486;2023-09-08T03:13:04;5.00;;;4.33;;
12840;SDS011;6487;48.626;12.486;2023-09-08T03:15:33;5.63;;;4.43;;
12840;SDS011;6487;48.626;12.486;2023-09-08T03:18:02;7.53;;;4.70;;
12840;SDS011;6487;48.626;12.486;2023-09-08T03:20:33;6.07;;;4.80;;
12840;SDS011;6487;48.626;12.486;2023-09-08T03:23:02;5.40;;;4.17;;
12840;SDS011;6487;48.626;12.486;2023-09-08T03:25:31;7.70;;;4.40;;
12840;SDS011;6487;48.626;12.486;2023-09-08T03:27:59;7.17;;;4.80;;
12840;SDS011;6487;48.626;12.486;2023-09-08T03:30:28;4.80;;;4.30;;
12840;SDS011;6487;48.626;12.486;2023-09-08T03:32:56;5.60;;;4.60;;
12840;SDS011;6487;48.626;12.486;2023-09-08T03:35:25;5.10;;;4.40;;
12840;SDS011;6487;48.626;12.486;2023-09-08T03:37:55;5.13;;;4.63;;
12840;SDS011;6487;48.626;12.486;2023-09-08T03:40:24;4.93;;;4.40;;
12840;SDS011;6487;48.626;12.486;2023-09-08T03:42:53;4.30;;;3.90;;
12840;SDS011;6487;48.626;12.486;2023-09-08T03:45:21;4.53;;;4.23;;
12840;SDS011;6487;48.626;12.486;2023-09-08T03:47:50;4.70;;;4.30;;
12840;SDS011;6487;48.626;12.486;2023-09-08T03:50:18;6.93;;;4.47;;
12840;SDS011;6487;48.626;12.486;2023-09-08T03:52:47;7.03;;;4.60;;
12840;SDS011;6487;48.626;12.486;2023-09-08T03:55:21;6.37;;;4.80;;
12840;SDS011;6487;48.626;12.486;2023-09-08T03:57:49;5.10;;;4.20;;
12840;SDS011;6487;48.626;12.486;2023-09-08T04:00:18;4.70;;;4.30;;
12840;SDS011;6487;48.626;12.486;2023-09-08T04:02:48;4.77;;;4.20;;
12840;SDS011;6487;48.626;12.486;2023-09-08T04:05:17;6.07;;;4.73;;
12840;SDS011;6487;48.626;12.486;2023-09-08T04:07:46;5.57;;;4.63;;
12840;SDS011;6487;48.626;12.486;2023-09-08T04:10:15;5.57;;;4.43;;
12840;SDS011;6487;48.626;12.486;2023-09-08T04:12:46;4.97;;;4.57;;
12840;SDS011;6487;48.626;12.486;2023-09-08T04:15:15;4.73;;;4.33;;
12840;SDS011;6487;48.626;12.486;2023-09-08T04:17:43;5.17;;;4.70;;
12840;SDS011;6487;48.626;12.486;2023-09-08T04:20:13;4.57;;;4.13;;
12840;SDS011;6487;48.626;12.486;2023-09-08T04:22:43;6.67;;;4.43;;
12840;SDS011;6487;48.626;12.486;2023-09-08T04:25:11;6.97;;;4.63;;
12840;SDS011;6487;48.626;12.486;2023-09-08T04:27:43;5.27;;;4.77;;
12840;SDS011;6487;48.626;12.486;2023-09-08T04:30:13;6.80;;;4.60;;
12840;SDS011;6487;48.626;12.486;2023-09-08T04:32:42;4.70;;;4.23;;
12840;SDS011;6487;48.626;12.486;2023-09-08T04:35:11;5.00;;;4.30;;
12840;SDS011;6487;48.626;12.486;2023-09-08T04:37:39;4.87;;;4.37;;
12840;SDS011;6487;48.626;12.486;2023-09-08T04:40:08;5.50;;;4.77;;
12840;SDS011;6487;48.626;12.486;2023-09-08T04:42:37;4.93;;;4.43;;
12840;SDS011;6487;48.626;12.486;2023-09-08T04:45:06;5.03;;;4.30;;
12840;SDS011;6487;48.626;12.486;2023-09-08T04:47:38;6.50;;;4.73;;
12840;SDS011;6487;48.626;12.486;2023-09-08T04:50:06;5.27;;;4.60;;
12840;SDS011;6487;48.626;12.486;2023-09-08T04:52:36;7.57;;;5.40;;
12840;SDS011;6487;48.626;12.486;2023-09-08T04:55:08;5.07;;;4.57;;
12840;SDS011;6487;48.626;12.486;2023-09-08T04:57:37;8.47;;;4.43;;
12840;SDS011;6487;48.626;12.486;2023-09-08T05:00:06;5.37;;;4.17;;
12840;SDS011;6487;48.626;12.486;2023-09-08T05:02:38;5.20;;;4.67;;
12840;SDS011;6487;48.626;12.486;2023-09-08T05:05:06;6.00;;;4.80;;
12840;SDS011;6487;48.626;12.486;2023-09-08T05:07:38;6.87;;;4.73;;
12840;SDS011;6487;48.626;12.486;2023-09-08T05:10:07;4.93;;;4.50;;
12840;SDS011;6487;48.626;12.486;2023-09-08T05:12:36;9.07;;;4.97;;
12840;SDS011;6487;48.626;12.486;2023-09-08T05:15:05;5.20;;;4.70;;
12840;SDS011;6487;48.626;12.486;2023-09-08T05:17:43;8.50;;;4.83;;
12840;SDS011;6487;48.626;12.486;2023-09-08T05:20:12;5.77;;;4.70;;
12840;SDS011;6487;48.626;12.486;2023-09-08T05:22:43;6.17;;;5.37;;
12840;SDS011;6487;48.626;12.486;2023-09-08T05:25:12;5.23;;;4.73;;
12840;SDS011;6487;48.626;12.486;2023-09-08T05:27:40;7.47;;;5.20;;
12840;SDS011;6487;48.626;12.486;2023-09-08T05:30:09;5.93;;;4.80;;
12840;SDS011;6487;48.626;12.486;2023-09-08T05:32:38;7.20;;;4.33;;
12840;SDS011;6487;48.626;12.486;2023-09-08T05:35:08;5.37;;;4.87;;
12840;SDS011;6487;48.626;12.486;2023-09-08T05:37:36;5.83;;;4.83;;
12840;SDS011;6487;48.626;12.486;2023-09-08T05:42:41;6.20;;;5.60;;
12840;SDS011;6487;48.626;12.486;2023-09-08T05:45:11;6.63;;;5.27;;
12840;SDS011;6487;48.626;12.486;2023-09-08T05:47:39;7.17;;;5.03;;
12840;SDS011;6487;48.626;12.486;2023-09-08T05:50:11;5.83;;;5.33;;
12840;SDS011;6487;48.626;12.486;2023-09-08T05:52:40;7.87;;;5.10;;
12840;SDS011;6487;48.626;12.486;2023-09-08T05:55:08;6.00;;;5.13;;
12840;SDS011;6487;48.626;12.486;2023-09-08T05:57:40;7.67;;;5.90;;
12840;SDS011;6487;48.626;12.486;2023-09-08T06:00:08;10.00;;;6.70;;
12840;SDS011;6487;48.626;12.486;2023-09-08T06:02:38;11.40;;;8.27;;
12840;SDS011;6487;48.626;12.486;2023-09-08T06:05:07;12.70;;;8.93;;
12840;SDS011;6487;48.626;12.486;2023-09-08T06:07:37;12.83;;;9.87;;
12840;SDS011;6487;48.626;12.486;2023-09-08T06:10:13;8.00;;;7.20;;
12840;SDS011;6487;48.626;12.486;2023-09-08T06:12:42;10.63;;;7.30;;
12840;SDS011;6487;48.626;12.486;2023-09-08T06:15:11;7.83;;;6.53;;
12840;SDS011;6487;48.626;12.486;2023-09-08T06:17:39;7.00;;;6.40;;
12840;SDS011;6487;48.626;12.486;2023-09-08T06:20:11;8.73;;;6.67;;
12840;SDS011;6487;48.626;12.486;2023-09-08T06:22:41;6.87;;;6.23;;
12840;SDS011;6487;48.626;12.486;2023-09-08T06:25:09;7.33;;;6.63;;
12840;SDS011;6487;48.626;12.486;2023-09-08T06:27:38;8.97;;;6.80;;
12840;SDS011;6487;48.626;12.486;2023-09-08T06:30:11;6.97;;;6.33;;
12840;SDS011;6487;48.626;12.486;2023-09-08T06:32:42;8.10;;;7.30;;
12840;SDS011;6487;48.626;12.486;2023-09-08T06:35:11;8.00;;;6.37;;
12840;SDS011;6487;48.626;12.486;2023-09-08T06:37:41;7.07;;;6.37;;
12840;SDS011;6487;48.626;12.486;2023-09-08T06:40:09;7.20;;;6.50;;
12840;SDS011;6487;48.626;12.486;2023-09-08T06:42:38;11.00;;;6.63;;
12840;SDS011;6487;48.626;12.486;2023-09-08T06:45:07;8.07;;;6.47;;
12840;SDS011;6487;48.626;12.486;2023-09-08T06:47:36;9.90;;;6.70;;
12840;SDS011;6487;48.626;12.486;2023-09-08T06:50:05;6.60;;;6.00;;
12840;SDS011;6487;48.626;12.486;2023-09-08T06:52:34;7.53;;;6.37;;
12840;SDS011;6487;48.626;12.486;2023-09-08T06:55:04;9.00;;;6.50;;
12840;SDS011;6487;48.626;12.486;2023-09-08T06:57:33;6.67;;;6.03;;
12840;SDS011;6487;48.626;12.486;2023-09-08T07:00:02;6.17;;;5.57;;
12840;SDS011;6487;48.626;12.486;2023-09-08T07:02:33;7.50;;;6.20;;
12840;SDS011;6487;48.626;12.486;2023-09-08T07:05:02;7.97;;;5.47;;
12840;SDS011;6487;48.626;12.486;2023-09-08T07:07:34;6.43;;;5.83;;
12840;SDS011;6487;48.626;12.486;2023-09-08T07:10:08;7.80;;;5.87;;
12840;SDS011;6487;48.626;12.486;2023-09-08T07:12:38;5.60;;;5.10;;
12840;SDS011;6487;48.626;12.486;2023-09-08T07:15:06;5.93;;;5.43;;
12840;SDS011;6487;48.626;12.486;2023-09-08T07:17:36;6.00;;;5.40;;
12840;SDS011;6487;48.626;12.486;2023-09-08T07:20:05;6.23;;;5.63;;
12840;SDS011;6487;48.626;12.486;2023-09-08T07:22:34;7.30;;;4.90;;
12840;SDS011;6487;48.626;12.486;2023-09-08T07:25:03;5.63;;;5.13;;
12840;SDS011;6487;48.626;12.486;2023-09-08T07:27:34;5.80;;;5.30;;
12840;SDS011;6487;48.626;12.486;2023-09-08T07:30:02;5.90;;;5.30;;
12840;SDS011;6487;48.626;12.486;2023-09-08T07:32:32;5.77;;;4.77;;
12840;SDS011;6487;48.626;12.486;2023-09-08T07:35:00;5.77;;;5.23;;
12840;SDS011;6487;48.626;12.486;2023-09-08T07:37:29;7.33;;;5.07;;
12840;SDS011;6487;48.626;12.486;2023-09-08T07:39:57;5.93;;;5.00;;
12840;SDS011;6487;48.626;12.486;2023-09-08T07:42:25;6.30;;;4.70;;
12840;SDS011;6487;48.626;12.486;2023-09-08T07:44:55;5.23;;;4.83;;
12840;SDS011;6487;48.626;12.486;2023-09-08T07:47:24;5.17;;;4.73;;
12840;SDS011;6487;48.626;12.486;2023-09-08T07:50:12;5.07;;;4.57;;
12840;SDS011;6487;48.626;12.486;2023-09-08T07:52:44;5.30;;;4.70;;
12840;SDS011;6487;48.626;12.486;2023-09-08T07:55:13;5.17;;;4.67;;
12840;SDS011;6487;48.626;12.486;2023-09-08T07:57:41;9.40;;;4.83;;
12840;SDS011;6487;48.626;12.486;2023-09-08T08:00:12;5.43;;;4.80;;
12840;SDS011;6487;48.626;12.486;2023-09-08T08:02:42;5.17;;;4.67;;
12840;SDS011;6487;48.626;12.486;2023-09-08T08:05:14;6.67;;;4.30;;
12840;SDS011;6487;48.626;12.486;2023-09-08T08:07:45;6.63;;;4.93;;
12840;SDS011;6487;48.626;12.486;2023-09-08T08:10:17;5.87;;;4.53;;
12840;SDS011;6487;48.626;12.486;2023-09-08T08:12:47;5.47;;;4.90;;
12840;SDS011;6487;48.626;12.486;2023-09-08T08:15:18;5.20;;;4.70;;
12840;SDS011;6487;48.626;12.486;2023-09-08T08:17:48;4.97;;;4.57;;
12840;SDS011;6487;48.626;12.486;2023-09-08T08:20:16;5.37;;;4.87;;
12840;SDS011;6487;48.626;12.486;2023-09-08T08:22:46;5.20;;;4.70;;
12840;SDS011;6487;48.626;12.486;2023-09-08T08:25:16;5.33;;;4.63;;
12840;SDS011;6487;48.626;12.486;2023-09-08T08:27:44;6.17;;;4.67;;
12840;SDS011;6487;48.626;12.486;2023-09-08T08:30:17;5.30;;;4.57;;
12840;SDS011;6487;48.626;12.486;2023-09-08T08:32:45;5.37;;;4.97;;
12840;SDS011;6487;48.626;12.486;2023-09-08T08:35:14;4.87;;;4.47;;
12840;SDS011;6487;48.626;12.486;2023-09-08T08:37:42;6.20;;;4.90;;
12840;SDS011;6487;48.626;12.486;2023-09-08T08:40:11;5.38;;;4.88;;
12840;SDS011;6487;48.626;12.486;2023-09-08T08:42:40;5.97;;;4.65;;
12840;SDS011;6487;48.626;12.486;2023-09-08T08:45:10;6.32;;;5.35;;
12840;SDS011;6487;48.626;12.486;2023-09-08T08:47:41;5.07;;;4.57;;
12840;SDS011;6487;48.626;12.486;2023-09-08T08:50:11;5.38;;;4.55;;
12840;SDS011;6487;48.626;12.486;2023-09-08T08:52:44;5.65;;;4.53;;
12840;SDS011;6487;48.626;12.486;2023-09-08T08:55:13;5.00;;;4.43;;
12840;SDS011;6487;48.626;12.486;2023-09-08T08:57:42;6.18;;;4.80;;
12840;SDS011;6487;48.626;12.486;2023-09-08T09:00:11;5.15;;;4.65;;
12840;SDS011;6487;48.626;12.486;2023-09-08T09:02:43;4.97;;;4.47;;
12840;SDS011;6487;48.626;12.486;2023-09-08T09:05:16;4.45;;;4.13;;
12840;SDS011;6487;48.626;12.486;2023-09-08T09:07:46;5.07;;;4.15;;
12840;SDS011;6487;48.626;12.486;2023-09-08T09:10:15;5.20;;;4.70;;
12840;SDS011;6487;48.626;12.486;2023-09-08T09:12:44;5.18;;;4.68;;
12840;SDS011;6487;48.626;12.486;2023-09-08T09:15:13;5.32;;;4.90;;
12840;SDS011;6487;48.626;12.486;2023-09-08T09:17:44;5.30;;;4.30;;
12840;SDS011;6487;48.626;12.486;2023-09-08T09:20:31;8.38;;;4.32;;
12840;SDS011;6487;48.626;12.486;2023-09-08T09:22:59;9.00;;;4.60;;
12840;SDS011;6487;48.626;12.486;2023-09-08T09:25:29;5.13;;;4.60;;
12840;SDS011;6487;48.626;12.486;2023-09-08T09:27:59;6.20;;;4.57;;
12840;SDS011;6487;48.626;12.486;2023-09-08T09:30:45;4.32;;;3.95;;
12840;SDS011;6487;48.626;12.486;2023-09-08T09:33:20;5.78;;;4.43;;
12840;SDS011;6487;48.626;12.486;2023-09-08T09:35:49;5.00;;;4.50;;
12840;SDS011;6487;48.626;12.486;2023-09-08T09:38:19;4.63;;;4.22;;
12840;SDS011;6487;48.626;12.486;2023-09-08T09:40:49;5.38;;;4.57;;
12840;SDS011;6487;48.626;12.486;2023-09-08T09:43:20;4.78;;;4.38;;
12840;SDS011;6487;48.626;12.486;2023-09-08T09:45:50;4.78;;;4.18;;
12840;SDS011;6487;48.626;12.486;2023-09-08T09:48:20;5.05;;;4.63;;
12840;SDS011;6487;48.626;12.486;2023-09-08T09:50:50;4.75;;;4.25;;
12840;SDS011;6487;48.626;12.486;2023-09-08T09:53:20;4.88;;;4.22;;
12840;SDS011;6487;48.626;12.486;2023-09-08T09:55:53;4.85;;;4.43;;
12840;SDS011;6487;48.626;12.486;2023-09-08T09:58:23;4.45;;;4.13;;
12840;SDS011;6487;48.626;12.486;2023-09-08T10:00:52;4.45;;;4.15;;
12840;SDS011;6487;48.626;12.486;2023-09-08T10:03:22;4.85;;;4.22;;
12840;SDS011;6487;48.626;12.486;2023-09-08T10:05:52;4.78;;;4.30;;
12840;SDS011;6487;48.626;12.486;2023-09-08T10:08:21;4.55;;;4.15;;
12840;SDS011;6487;48.626;12.486;2023-09-08T10:10:50;4.80;;;4.40;;
12840;SDS011;6487;48.626;12.486;2023-09-08T10:13:21;4.68;;;4.28;;
12840;SDS011;6487;48.626;12.486;2023-09-08T10:15:55;4.72;;;4.20;;
12840;SDS011;6487;48.626;12.486;2023-09-08T10:18:27;5.82;;;4.30;;
12840;SDS011;6487;48.626;12.486;2023-09-08T10:20:57;5.00;;;3.53;;
12840;SDS011;6487;48.626;12.486;2023-09-08T10:23:33;5.78;;;4.57;;
12840;SDS011;6487;48.626;12.486;2023-09-08T10:26:05;6.15;;;4.50;;
12840;SDS011;6487;48.626;12.486;2023-09-08T10:28:38;4.47;;;4.15;;
12840;SDS011;6487;48.626;12.486;2023-09-08T10:31:06;5.53;;;5.13;;
12840;SDS011;6487;48.626;12.486;2023-09-08T10:33:42;4.72;;;3.90;;
12840;SDS011;6487;48.626;12.486;2023-09-08T10:36:12;5.00;;;4.60;;
12840;SDS011;6487;48.626;12.486;2023-09-08T10:38:41;4.28;;;3.88;;
12840;SDS011;6487;48.626;12.486;2023-09-08T10:41:26;5.03;;;4.63;;
12840;SDS011;6487;48.626;12.486;2023-09-08T10:44:01;5.07;;;4.60;;
12840;SDS011;6487;48.626;12.486;2023-09-08T10:46:32;5.13;;;4.55;;
12840;SDS011;6487;48.626;12.486;2023-09-08T10:49:03;5.57;;;4.18;;
12840;SDS011;6487;48.626;12.486;2023-09-08T10:51:34;4.82;;;4.40;;
12840;SDS011;6487;48.626;12.486;2023-09-08T10:54:03;5.80;;;4.63;;
12840;SDS011;6487;48.626;12.486;2023-09-08T10:56:48;5.28;;;4.55;;
12840;SDS011;6487;48.626;12.486;2023-09-08T10:59:27;4.80;;;4.38;;
12840;SDS011;6487;48.626;12.486;2023-09-08T11:01:56;4.97;;;4.57;;
12840;SDS011;6487;48.626;12.486;2023-09-08T11:04:26;4.65;;;4.25;;
12840;SDS011;6487;48.626;12.486;2023-09-08T11:06:56;4.55;;;4.15;;
12840;SDS011;6487;48.626;12.486;2023-09-08T11:09:25;4.90;;;4.28;;
12840;SDS011;6487;48.626;12.486;2023-09-08T11:11:53;5.10;;;4.47;;
12840;SDS011;6487;48.626;12.486;2023-09-08T11:14:22;4.85;;;4.45;;
12840;SDS011;6487;48.626;12.486;2023-09-08T11:16:50;5.22;;;4.72;;
12840;SDS011;6487;48.626;12.486;2023-09-08T11:19:18;5.13;;;4.55;;
12840;SDS011;6487;48.626;12.486;2023-09-08T11:21:48;4.95;;;4.55;;
12840;SDS011;6487;48.626;12.486;2023-09-08T11:24:16;4.57;;;4.18;;
12840;SDS011;6487;48.626;12.486;2023-09-08T11:26:45;4.90;;;4.40;;
12840;SDS011;6487;48.626;12.486;2023-09-08T11:29:16;4.45;;;4.05;;
12840;SDS011;6487;48.626;12.486;2023-09-08T11:31:46;7.03;;;4.88;;
12840;SDS011;6487;48.626;12.486;2023-09-08T11:34:20;4.75;;;4.35;;
12840;SDS011;6487;48.626;12.486;2023-09-08T11:36:50;4.93;;;4.53;;
12840;SDS011;6487;48.626;12.486;2023-09-08T11:39:22;5.18;;;4.78;;
12840;SDS011;6487;48.626;12.486;2023-09-08T11:41:51;4.95;;;4.10;;
12840;SDS011;6487;48.626;12.486;2023-09-08T11:44:20;5.00;;;4.53;;
12840;SDS011;6487;48.626;12.486;2023-09-08T11:46:49;5.30;;;4.80;;
12840;SDS011;6487;48.626;12.486;2023-09-08T11:49:18;5.13;;;4.20;;
12840;SDS011;6487;48.626;12.486;2023-09-08T11:51:51;4.80;;;4.38;;
12840;SDS011;6487;48.626;12.486;2023-09-08T11:54:20;6.47;;;4.63;;
12840;SDS011;6487;48.626;12.486;2023-09-08T11:56:49;5.53;;;5.03;;
12840;SDS011;6487;48.626;12.486;2023-09-08T11:59:18;5.13;;;4.72;;
12840;SDS011;6487;48.626;12.486;2023-09-08T12:01:47;4.50;;;4.15;;
12840;SDS011;6487;48.626;12.486;2023-09-08T12:04:19;4.57;;;4.18;;
12840;SDS011;6487;48.626;12.486;2023-09-08T12:06:47;4.90;;;4.45;;
12840;SDS011;6487;48.626;12.486;2023-09-08T12:09:19;5.80;;;4.93;;
12840;SDS011;6487;48.626;12.486;2023-09-08T12:11:49;5.95;;;4.47;;
12840;SDS011;6487;48.626;12.486;2023-09-08T12:14:17;4.97;;;4.57;;
12840;SDS011;6487;48.626;12.486;2023-09-08T12:16:46;5.18;;;4.65;;
12840;SDS011;6487;48.626;12.486;2023-09-08T12:19:29;5.00;;;4.57;;
12840;SDS011;6487;48.626;12.486;2023-09-08T12:21:59;4.85;;;4.47;;
12840;SDS011;6487;48.626;12.486;2023-09-08T12:24:55;6.30;;;4.85;;
12840;SDS011;6487;48.626;12.486;2023-09-08T12:27:25;5.20;;;4.80;;
12840;SDS011;6487;48.626;12.486;2023-09-08T12:29:54;5.10;;;4.32;;
12840;SDS011;6487;48.626;12.486;2023-09-08T12:32:23;4.97;;;4.50;;
12840;SDS011;6487;48.626;12.486;2023-09-08T12:34:53;4.15;;;3.83;;
12840;SDS011;6487;48.626;12.486;2023-09-08T12:37:22;5.28;;;4.82;;
12840;SDS011;6487;48.626;12.486;2023-09-08T12:39:55;5.47;;;4.95;;
12840;SDS011;6487;48.626;12.486;2023-09-08T12:42:24;5.20;;;4.80;;
12840;SDS011;6487;48.626;12.486;2023-09-08T12:44:55;4.65;;;4.25;;
12840;SDS011;6487;48.626;12.486;2023-09-08T12:47:25;4.20;;;3.83;;
12840;SDS011;6487;48.626;12.486;2023-09-08T12:49:53;5.97;;;4.63;;
12840;SDS011;6487;48.626;12.486;2023-09-08T12:52:22;5.10;;;4.53;;
12840;SDS011;6487;48.626;12.486;2023-09-08T12:54:50;4.60;;;4.30;;
12840;SDS011;6487;48.626;12.486;2023-09-08T12:57:20;5.15;;;4.45;;
12840;SDS011;6487;48.626;12.486;2023-09-08T12:59:48;4.65;;;4.25;;
12840;SDS011;6487;48.626;12.486;2023-09-08T13:02:18;5.20;;;4.70;;
12840;SDS011;6487;48.626;12.486;2023-09-08T13:04:47;5.80;;;4.57;;
12840;SDS011;6487;48.626;12.486;2023-09-08T13:07:16;4.93;;;4.53;;
12840;SDS011;6487;48.626;12.486;2023-09-08T13:09:45;4.13;;;3.83;;
12840;SDS011;6487;48.626;12.486;2023-09-08T13:12:13;7.18;;;4.22;;
12840;SDS011;6487;48.626;12.486;2023-09-08T13:14:43;5.32;;;4.80;;
12840;SDS011;6487;48.626;12.486;2023-09-08T13:17:11;5.00;;;4.60;;
12840;SDS011;6487;48.626;12.486;2023-09-08T13:19:41;5.10;;;4.70;;
12840;SDS011;6487;48.626;12.486;2023-09-08T13:22:13;4.70;;;4.40;;
12840;SDS011;6487;48.626;12.486;2023-09-08T13:24:42;4.50;;;4.13;;
12840;SDS011;6487;48.626;12.486;2023-09-08T13:27:10;6.65;;;6.03;;
12840;SDS011;6487;48.626;12.486;2023-09-08T13:29:43;5.90;;;5.32;;
12840;SDS011;6487;48.626;12.486;2023-09-08T13:32:11;7.60;;;4.72;;
12840;SDS011;6487;48.626;12.486;2023-09-08T13:34:40;4.78;;;4.47;;
12840;SDS011;6487;48.626;12.486;2023-09-08T13:37:10;4.75;;;4.32;;
12840;SDS011;6487;48.626;12.486;2023-09-08T13:39:38;5.28;;;4.78;;
12840;SDS011;6487;48.626;12.486;2023-09-08T13:42:06;6.45;;;4.65;;
12840;SDS011;6487;48.626;12.486;2023-09-08T13:44:37;6.88;;;4.65;;
12840;SDS011;6487;48.626;12.486;2023-09-08T13:47:08;5.03;;;4.53;;
12840;SDS011;6487;48.626;12.486;2023-09-08T13:49:36;6.22;;;3.75;;
12840;SDS011;6487;48.626;12.486;2023-09-08T13:52:06;4.75;;;4.30;;
12840;SDS011;6487;48.626;12.486;2023-09-08T13:54:38;4.97;;;4.47;;
12840;SDS011;6487;48.626;12.486;2023-09-08T13:57:10;4.32;;;4.03;;
12840;SDS011;6487;48.626;12.486;2023-09-08T13:59:40;4.53;;;4.13;;
12840;SDS011;6487;48.626;12.486;2023-09-08T14:02:10;5.05;;;4.65;;
12840;SDS011;6487;48.626;12.486;2023-09-08T14:04:41;5.13;;;4.63;;
12840;SDS011;6487;48.626;12.486;2023-09-08T14:07:14;4.72;;;4.32;;
12840;SDS011;6487;48.626;12.486;2023-09-08T14:09:50;5.38;;;4.78;;
12840;SDS011;6487;48.626;12.486;2023-09-08T14:12:31;4.68;;;4.28;;
12840;SDS011;6487;48.626;12.486;2023-09-08T14:15:01;4.75;;;4.35;;
12840;SDS011;6487;48.626;12.486;2023-09-08T14:17:31;5.30;;;4.80;;
12840;SDS011;6487;48.626;12.486;2023-09-08T14:20:04;4.53;;;4.15;;
12840;SDS011;6487;48.626;12.486;2023-09-08T14:22:34;5.13;;;3.67;;
12840;SDS011;6487;48.626;12.486;2023-09-08T14:25:02;5.05;;;4.65;;
12840;SDS011;6487;48.626;12.486;2023-09-08T14:27:31;6.07;;;4.15;;
12840;SDS011;6487;48.626;12.486;2023-09-08T14:30:01;4.82;;;4.43;;
12840;SDS011;6487;48.626;12.486;2023-09-08T14:32:31;5.25;;;4.55;;
12840;SDS011;6487;48.626;12.486;2023-09-08T14:35:00;4.88;;;4.38;;
12840;SDS011;6487;48.626;12.486;2023-09-08T14:37:29;4.10;;;3.80;;
12840;SDS011;6487;48.626;12.486;2023-09-08T14:39:57;4.28;;;3.97;;
12840;SDS011;6487;48.626;12.486;2023-09-08T14:42:26;5.10;;;3.72;;
12840;SDS011;6487;48.626;12.486;2023-09-08T14:44:55;4.32;;;4.03;;
12840;SDS011;6487;48.626;12.486;2023-09-08T14:47:24;4.40;;;4.00;;
12840;SDS011;6487;48.626;12.486;2023-09-08T14:49:54;4.30;;;3.90;;
12840;SDS011;6487;48.626;12.486;2023-09-08T14:52:23;4.57;;;4.28;;
12840;SDS011;6487;48.626;12.486;2023-09-08T14:54:51;3.95;;;3.65;;
12840;SDS011;6487;48.626;12.486;2023-09-08T14:57:20;4.45;;;4.10;;
12840;SDS011;6487;48.626;12.486;2023-09-08T14:59:48;5.18;;;4.68;;
12840;SDS011;6487;48.626;12.486;2023-09-08T15:02:20;4.95;;;4.55;;
12840;SDS011;6487;48.626;12.486;2023-09-08T15:04:49;5.10;;;4.63;;
12840;SDS011;6487;48.626;12.486;2023-09-08T15:07:18;5.55;;;4.43;;